VIV610 MMMY-KDFW
Flight info
| Callsign | VIV610 |
|---|---|
| Flight time | 1h 17m |
| Altitude | 390 |
| Route | URTA1A URTAN UJ11E NLD ZARPO SATOC SAT J131 EDNAS KIILO BOOVE7 |
| Aircraft | A320/M-SWIDGRYE1/LB1 |
Departure
| Time | 2026-05-09 03:48 |
|---|---|
| Airport | Monterrey International Airport (MMMY) |
Arrival
| Time | 2026-05-09 05:06 |
|---|---|
| Airport | Dallas Fort Worth International Airport (KDFW) |
| Time | Latitude | Longitude | Altitude | Speed | Heading |
|---|---|---|---|---|---|
| 2026-05-09 03:18 | 25.77926 | -100.11436 | 1278 ft | 0 kts | 211° |
| 2026-05-09 03:38 | 25.77927 | -100.11435 | 1278 ft | 1 kts | 211° |
| 2026-05-09 03:38 | 25.77939 | -100.11427 | 1279 ft | 3 kts | 212° |
| 2026-05-09 03:39 | 25.77956 | -100.11415 | 1279 ft | 3 kts | 215° |
| 2026-05-09 03:39 | 25.77972 | -100.11402 | 1279 ft | 3 kts | 220° |
| 2026-05-09 03:39 | 25.77987 | -100.11387 | 1281 ft | 3 kts | 232° |
| 2026-05-09 03:39 | 25.77997 | -100.11369 | 1279 ft | 3 kts | 270° |
| 2026-05-09 03:40 | 25.77996 | -100.11359 | 1281 ft | 0 kts | 302° |
| 2026-05-09 03:42 | 25.77996 | -100.11358 | 1281 ft | 0 kts | 302° |
| 2026-05-09 03:44 | 25.77998 | -100.11362 | 1280 ft | 2 kts | 302° |
| 2026-05-09 03:44 | 25.78010 | -100.11382 | 1280 ft | 4 kts | 302° |
| 2026-05-09 03:44 | 25.78024 | -100.11407 | 1278 ft | 4 kts | 302° |
| 2026-05-09 03:45 | 25.78042 | -100.11440 | 1279 ft | 6 kts | 302° |
| 2026-05-09 03:45 | 25.78063 | -100.11478 | 1279 ft | 6 kts | 302° |
| 2026-05-09 03:45 | 25.78086 | -100.11519 | 1280 ft | 7 kts | 302° |
| 2026-05-09 03:45 | 25.78129 | -100.11599 | 1281 ft | 19 kts | 301° |
| 2026-05-09 03:46 | 25.78203 | -100.11732 | 1283 ft | 20 kts | 301° |
| 2026-05-09 03:46 | 25.78295 | -100.11790 | 1286 ft | 17 kts | 23° |
| 2026-05-09 03:46 | 25.78387 | -100.11729 | 1286 ft | 14 kts | 32° |
| 2026-05-09 03:46 | 25.78403 | -100.11684 | 1289 ft | 0 kts | 127° |
| 2026-05-09 03:47 | 25.78395 | -100.11672 | 1288 ft | 4 kts | 123° |
| 2026-05-09 03:47 | 25.78317 | -100.11529 | 1283 ft | 53 kts | 121° |
| 2026-05-09 03:48 | 25.78009 | -100.10972 | 1273 ft | 113 kts | 121° |
| 2026-05-09 03:48 | 25.77514 | -100.10077 | 1261 ft | 158 kts | 121° |
| 2026-05-09 03:48 | 25.76916 | -100.09001 | 1747 ft | 163 kts | 121° |
| 2026-05-09 03:48 | 25.76324 | -100.07889 | 2156 ft | 178 kts | 119° |
| 2026-05-09 03:49 | 25.75682 | -100.06617 | 2377 ft | 200 kts | 118° |
| 2026-05-09 03:49 | 25.74975 | -100.05200 | 2623 ft | 222 kts | 118° |
| 2026-05-09 03:49 | 25.74187 | -100.03624 | 2977 ft | 244 kts | 119° |
| 2026-05-09 03:49 | 25.73528 | -100.01857 | 3670 ft | 254 kts | 102° |
| 2026-05-09 03:50 | 25.73625 | -99.99878 | 4467 ft | 265 kts | 76° |
| 2026-05-09 03:50 | 25.74622 | -99.98111 | 5192 ft | 282 kts | 45° |
| 2026-05-09 03:50 | 25.76394 | -99.97117 | 5940 ft | 294 kts | 14° |
| 2026-05-09 03:50 | 25.78423 | -99.96735 | 6712 ft | 297 kts | 11° |
| 2026-05-09 03:51 | 25.80473 | -99.96390 | 7472 ft | 299 kts | 9° |
| 2026-05-09 03:51 | 25.82536 | -99.96048 | 8229 ft | 301 kts | 9° |
| 2026-05-09 03:51 | 25.84534 | -99.95368 | 8948 ft | 303 kts | 26° |
| 2026-05-09 03:51 | 25.86422 | -99.94322 | 9694 ft | 305 kts | 27° |
| 2026-05-09 03:52 | 25.88321 | -99.93247 | 10336 ft | 308 kts | 26° |
| 2026-05-09 03:52 | 25.90245 | -99.92152 | 10936 ft | 313 kts | 25° |
| 2026-05-09 03:52 | 25.92209 | -99.91053 | 11492 ft | 321 kts | 24° |
| 2026-05-09 03:52 | 25.94292 | -99.89946 | 11643 ft | 343 kts | 22° |
| 2026-05-09 03:53 | 25.96520 | -99.88799 | 11849 ft | 361 kts | 22° |
| 2026-05-09 03:53 | 25.98826 | -99.87621 | 12327 ft | 367 kts | 22° |
| 2026-05-09 03:53 | 26.01162 | -99.86422 | 12824 ft | 372 kts | 23° |
| 2026-05-09 03:53 | 26.03523 | -99.85200 | 13349 ft | 377 kts | 21° |
| 2026-05-09 03:54 | 26.05913 | -99.83955 | 13840 ft | 382 kts | 21° |
| 2026-05-09 03:54 | 26.08335 | -99.82686 | 14360 ft | 386 kts | 21° |
| 2026-05-09 03:54 | 26.10771 | -99.81406 | 14884 ft | 389 kts | 21° |
| 2026-05-09 03:54 | 26.13228 | -99.80117 | 15422 ft | 393 kts | 21° |
| 2026-05-09 03:55 | 26.15713 | -99.78817 | 15957 ft | 396 kts | 21° |
| 2026-05-09 03:55 | 26.18216 | -99.77509 | 16475 ft | 399 kts | 21° |
| 2026-05-09 03:55 | 26.20744 | -99.76189 | 17005 ft | 403 kts | 21° |
| 2026-05-09 03:55 | 26.23287 | -99.74859 | 17525 ft | 406 kts | 21° |
| 2026-05-09 03:56 | 26.25855 | -99.73514 | 18037 ft | 410 kts | 21° |
| 2026-05-09 03:56 | 26.28444 | -99.72154 | 18500 ft | 413 kts | 21° |
| 2026-05-09 03:56 | 26.31056 | -99.70783 | 18943 ft | 417 kts | 21° |
| 2026-05-09 03:56 | 26.33692 | -99.69399 | 19388 ft | 421 kts | 21° |
| 2026-05-09 03:57 | 26.36354 | -99.68002 | 19824 ft | 425 kts | 21° |
| 2026-05-09 03:57 | 26.39040 | -99.66593 | 20257 ft | 429 kts | 21° |
| 2026-05-09 03:57 | 26.41752 | -99.65173 | 20675 ft | 433 kts | 21° |
| 2026-05-09 03:57 | 26.44489 | -99.63734 | 21088 ft | 437 kts | 21° |
| 2026-05-09 03:58 | 26.47247 | -99.62280 | 21494 ft | 440 kts | 21° |
| 2026-05-09 03:58 | 26.50029 | -99.60814 | 21905 ft | 444 kts | 21° |
| 2026-05-09 03:58 | 26.52887 | -99.59520 | 22309 ft | 443 kts | 12° |
| 2026-05-09 03:58 | 26.55876 | -99.58762 | 22703 ft | 439 kts | 2° |
| 2026-05-09 03:59 | 26.58912 | -99.58525 | 23092 ft | 437 kts | 355° |
| 2026-05-09 03:59 | 26.61966 | -99.58450 | 23465 ft | 441 kts | 355° |
| 2026-05-09 03:59 | 26.65038 | -99.58380 | 23801 ft | 443 kts | 354° |
| 2026-05-09 03:59 | 26.68129 | -99.58312 | 24157 ft | 445 kts | 354° |
| 2026-05-09 04:00 | 26.71234 | -99.58243 | 24500 ft | 447 kts | 354° |
| 2026-05-09 04:00 | 26.74353 | -99.58172 | 24854 ft | 449 kts | 354° |
| 2026-05-09 04:00 | 26.77487 | -99.58095 | 25203 ft | 452 kts | 354° |
| 2026-05-09 04:00 | 26.80637 | -99.58016 | 25557 ft | 454 kts | 354° |
| 2026-05-09 04:01 | 26.83801 | -99.57934 | 25922 ft | 456 kts | 354° |
| 2026-05-09 04:01 | 26.86975 | -99.57851 | 26270 ft | 458 kts | 354° |
| 2026-05-09 04:01 | 26.90167 | -99.57772 | 26619 ft | 460 kts | 354° |
| 2026-05-09 04:01 | 26.93372 | -99.57691 | 26961 ft | 462 kts | 354° |
| 2026-05-09 04:02 | 26.96590 | -99.57614 | 27300 ft | 463 kts | 354° |
| 2026-05-09 04:02 | 26.99820 | -99.57537 | 27637 ft | 465 kts | 354° |
| 2026-05-09 04:02 | 27.03062 | -99.57463 | 27974 ft | 467 kts | 354° |
| 2026-05-09 04:02 | 27.06319 | -99.57389 | 28325 ft | 469 kts | 354° |
| 2026-05-09 04:03 | 27.09584 | -99.57313 | 28679 ft | 471 kts | 354° |
| 2026-05-09 04:03 | 27.12866 | -99.57232 | 29027 ft | 473 kts | 354° |
| 2026-05-09 04:03 | 27.16163 | -99.57146 | 29371 ft | 475 kts | 354° |
| 2026-05-09 04:03 | 27.19474 | -99.57060 | 29715 ft | 477 kts | 354° |
| 2026-05-09 04:04 | 27.22798 | -99.56974 | 30025 ft | 479 kts | 353° |
| 2026-05-09 04:04 | 27.26135 | -99.56891 | 30316 ft | 480 kts | 353° |
| 2026-05-09 04:04 | 27.29473 | -99.56807 | 30716 ft | 479 kts | 353° |
| 2026-05-09 04:04 | 27.32802 | -99.56725 | 31122 ft | 478 kts | 353° |
| 2026-05-09 04:05 | 27.36125 | -99.56643 | 31535 ft | 477 kts | 353° |
| 2026-05-09 04:05 | 27.38365 | -99.56588 | 31812 ft | 477 kts | 353° |
| 2026-05-09 04:05 | 27.41682 | -99.56409 | 32218 ft | 482 kts | 359° |
| 2026-05-09 04:05 | 27.45008 | -99.55709 | 32624 ft | 491 kts | 8° |
| 2026-05-09 04:06 | 27.48262 | -99.54423 | 33021 ft | 499 kts | 16° |
| 2026-05-09 04:06 | 27.51459 | -99.52891 | 33414 ft | 500 kts | 17° |
| 2026-05-09 04:06 | 27.54628 | -99.51253 | 33816 ft | 502 kts | 19° |
| 2026-05-09 04:06 | 27.57753 | -99.49484 | 34163 ft | 504 kts | 21° |
| 2026-05-09 04:07 | 27.60846 | -99.47626 | 34461 ft | 505 kts | 22° |
| 2026-05-09 04:07 | 27.63935 | -99.45723 | 34748 ft | 506 kts | 22° |
| 2026-05-09 04:07 | 27.67031 | -99.43819 | 34860 ft | 507 kts | 22° |
| 2026-05-09 04:07 | 27.70160 | -99.41930 | 34883 ft | 514 kts | 21° |
| 2026-05-09 04:08 | 27.76593 | -99.38154 | 34868 ft | 526 kts | 21° |
| 2026-05-09 04:08 | 27.83126 | -99.34362 | 34861 ft | 529 kts | 21° |
| 2026-05-09 04:09 | 27.89665 | -99.30527 | 34856 ft | 530 kts | 21° |
| 2026-05-09 04:09 | 27.96267 | -99.26868 | 34869 ft | 526 kts | 17° |
| 2026-05-09 04:10 | 28.03022 | -99.23728 | 34865 ft | 524 kts | 14° |
| 2026-05-09 04:10 | 28.09815 | -99.20725 | 34874 ft | 525 kts | 14° |
| 2026-05-09 04:11 | 28.16590 | -99.17574 | 34881 ft | 527 kts | 15° |
| 2026-05-09 04:11 | 28.23337 | -99.14312 | 34893 ft | 528 kts | 15° |
| 2026-05-09 04:12 | 28.30094 | -99.11048 | 34898 ft | 528 kts | 15° |
| 2026-05-09 04:12 | 28.36869 | -99.07814 | 34903 ft | 528 kts | 15° |
| 2026-05-09 04:13 | 28.43650 | -99.04596 | 34903 ft | 529 kts | 15° |
| 2026-05-09 04:13 | 28.50435 | -99.01354 | 34900 ft | 529 kts | 15° |
| 2026-05-09 04:14 | 28.57221 | -98.98092 | 34891 ft | 530 kts | 15° |
| 2026-05-09 04:14 | 28.64011 | -98.94834 | 34883 ft | 530 kts | 15° |
| 2026-05-09 04:15 | 28.70812 | -98.91572 | 34878 ft | 530 kts | 15° |
| 2026-05-09 04:15 | 28.77613 | -98.88303 | 34882 ft | 530 kts | 15° |
| 2026-05-09 04:16 | 28.84419 | -98.85030 | 34891 ft | 531 kts | 15° |
| 2026-05-09 04:16 | 28.91224 | -98.81746 | 34900 ft | 531 kts | 15° |
| 2026-05-09 04:17 | 28.98032 | -98.78448 | 34910 ft | 532 kts | 15° |
| 2026-05-09 04:17 | 29.04851 | -98.75151 | 34912 ft | 532 kts | 14° |
| 2026-05-09 04:18 | 29.11665 | -98.71856 | 34906 ft | 532 kts | 14° |
| 2026-05-09 04:18 | 29.18489 | -98.68544 | 34912 ft | 532 kts | 14° |
| 2026-05-09 04:19 | 29.25305 | -98.65226 | 34900 ft | 532 kts | 14° |
| 2026-05-09 04:19 | 29.32130 | -98.61910 | 34907 ft | 533 kts | 14° |
| 2026-05-09 04:20 | 29.38950 | -98.58586 | 34907 ft | 533 kts | 14° |
| 2026-05-09 04:20 | 29.45771 | -98.55256 | 34906 ft | 533 kts | 14° |
| 2026-05-09 04:21 | 29.52591 | -98.51917 | 34933 ft | 533 kts | 15° |
| 2026-05-09 04:22 | 29.62847 | -98.47008 | 34927 ft | 527 kts | 9° |
| 2026-05-09 04:22 | 29.66356 | -98.45922 | 34922 ft | 516 kts | 1° |
| 2026-05-09 04:22 | 29.69875 | -98.45325 | 34912 ft | 509 kts | 356° |
| 2026-05-09 04:23 | 29.76911 | -98.44312 | 34897 ft | 510 kts | 357° |
| 2026-05-09 04:23 | 29.83961 | -98.43290 | 34890 ft | 511 kts | 357° |
| 2026-05-09 04:24 | 29.91015 | -98.42250 | 34884 ft | 511 kts | 357° |
| 2026-05-09 04:24 | 29.98074 | -98.41206 | 34883 ft | 512 kts | 357° |
| 2026-05-09 04:25 | 30.05145 | -98.40171 | 34881 ft | 512 kts | 357° |
| 2026-05-09 04:25 | 30.12226 | -98.39137 | 34887 ft | 513 kts | 357° |
| 2026-05-09 04:26 | 30.19309 | -98.38099 | 34886 ft | 513 kts | 357° |
| 2026-05-09 04:26 | 30.26402 | -98.37056 | 34902 ft | 514 kts | 358° |
| 2026-05-09 04:27 | 30.33496 | -98.36003 | 34913 ft | 514 kts | 358° |
| 2026-05-09 04:27 | 30.40597 | -98.34945 | 34933 ft | 515 kts | 358° |
| 2026-05-09 04:28 | 30.47707 | -98.33893 | 34939 ft | 515 kts | 358° |
| 2026-05-09 04:28 | 30.54814 | -98.32846 | 34943 ft | 515 kts | 358° |
| 2026-05-09 04:29 | 30.61924 | -98.31788 | 34942 ft | 515 kts | 358° |
| 2026-05-09 04:29 | 30.69035 | -98.30718 | 34956 ft | 516 kts | 358° |
| 2026-05-09 04:30 | 30.76159 | -98.29658 | 34959 ft | 515 kts | 358° |
| 2026-05-09 04:30 | 30.83280 | -98.28606 | 34958 ft | 516 kts | 358° |
| 2026-05-09 04:31 | 30.90399 | -98.27545 | 34945 ft | 516 kts | 358° |
| 2026-05-09 04:31 | 30.97521 | -98.26476 | 34954 ft | 516 kts | 358° |
| 2026-05-09 04:32 | 31.04641 | -98.25400 | 34964 ft | 516 kts | 358° |
| 2026-05-09 04:32 | 31.11759 | -98.24330 | 34967 ft | 515 kts | 358° |
| 2026-05-09 04:33 | 31.18867 | -98.23262 | 34965 ft | 515 kts | 358° |
| 2026-05-09 04:33 | 31.25938 | -98.22197 | 34680 ft | 505 kts | 358° |
| 2026-05-09 04:33 | 31.29391 | -98.21666 | 34446 ft | 496 kts | 358° |
| 2026-05-09 04:34 | 31.32797 | -98.21144 | 34208 ft | 491 kts | 358° |
| 2026-05-09 04:34 | 31.36179 | -98.20633 | 33972 ft | 488 kts | 358° |
| 2026-05-09 04:34 | 31.39541 | -98.20129 | 33723 ft | 486 kts | 358° |
| 2026-05-09 04:34 | 31.42890 | -98.19628 | 33473 ft | 484 kts | 358° |
| 2026-05-09 04:35 | 31.46221 | -98.19128 | 33171 ft | 480 kts | 358° |
| 2026-05-09 04:35 | 31.49529 | -98.18631 | 32649 ft | 479 kts | 359° |
| 2026-05-09 04:35 | 31.52819 | -98.18134 | 32183 ft | 475 kts | 359° |
| 2026-05-09 04:35 | 31.56093 | -98.17638 | 31701 ft | 472 kts | 359° |
| 2026-05-09 04:36 | 31.59336 | -98.17024 | 31225 ft | 476 kts | 6° |
| 2026-05-09 04:36 | 31.62513 | -98.15847 | 30744 ft | 482 kts | 16° |
| 2026-05-09 04:36 | 31.65528 | -98.14067 | 30256 ft | 488 kts | 27° |
| 2026-05-09 04:36 | 31.68355 | -98.11963 | 29738 ft | 486 kts | 28° |
| 2026-05-09 04:37 | 31.71232 | -98.09808 | 29257 ft | 481 kts | 28° |
| 2026-05-09 04:37 | 31.74040 | -98.07706 | 28794 ft | 477 kts | 28° |
| 2026-05-09 04:37 | 31.76821 | -98.05623 | 28337 ft | 472 kts | 28° |
| 2026-05-09 04:37 | 31.79573 | -98.03559 | 27879 ft | 467 kts | 28° |
| 2026-05-09 04:38 | 31.82296 | -98.01516 | 27453 ft | 462 kts | 28° |
| 2026-05-09 04:38 | 31.84994 | -97.99493 | 27028 ft | 457 kts | 27° |
| 2026-05-09 04:38 | 31.87667 | -97.97494 | 26599 ft | 453 kts | 27° |
| 2026-05-09 04:38 | 31.90310 | -97.95518 | 26202 ft | 448 kts | 27° |
| 2026-05-09 04:39 | 31.92931 | -97.93559 | 25792 ft | 444 kts | 27° |
| 2026-05-09 04:39 | 31.95527 | -97.91613 | 25381 ft | 440 kts | 28° |
| 2026-05-09 04:39 | 31.98066 | -97.89705 | 24977 ft | 437 kts | 28° |
| 2026-05-09 04:39 | 32.00620 | -97.87782 | 24566 ft | 434 kts | 28° |
| 2026-05-09 04:40 | 32.03156 | -97.85867 | 24147 ft | 431 kts | 28° |
| 2026-05-09 04:40 | 32.05673 | -97.83968 | 23735 ft | 428 kts | 28° |
| 2026-05-09 04:40 | 32.08182 | -97.82077 | 23274 ft | 432 kts | 28° |
| 2026-05-09 04:40 | 32.10727 | -97.80161 | 22817 ft | 435 kts | 28° |
| 2026-05-09 04:41 | 32.13276 | -97.78240 | 22368 ft | 434 kts | 28° |
| 2026-05-09 04:41 | 32.15811 | -97.76328 | 21915 ft | 431 kts | 28° |
| 2026-05-09 04:41 | 32.18353 | -97.74487 | 21486 ft | 426 kts | 26° |
| 2026-05-09 04:41 | 32.20884 | -97.72762 | 21284 ft | 414 kts | 25° |
| 2026-05-09 04:42 | 32.23381 | -97.71124 | 20905 ft | 408 kts | 24° |
| 2026-05-09 04:42 | 32.25887 | -97.69588 | 20459 ft | 403 kts | 22° |
| 2026-05-09 04:42 | 32.28398 | -97.68140 | 19995 ft | 400 kts | 21° |
| 2026-05-09 04:42 | 32.30898 | -97.66732 | 19543 ft | 397 kts | 21° |
| 2026-05-09 04:43 | 32.32581 | -97.65783 | 19233 ft | 395 kts | 22° |
| 2026-05-09 04:43 | 32.35051 | -97.64372 | 18772 ft | 393 kts | 22° |
| 2026-05-09 04:43 | 32.37470 | -97.62873 | 18315 ft | 393 kts | 29° |
| 2026-05-09 04:43 | 32.39651 | -97.60922 | 17757 ft | 395 kts | 40° |
| 2026-05-09 04:44 | 32.41627 | -97.58662 | 17275 ft | 393 kts | 42° |
| 2026-05-09 04:44 | 32.43578 | -97.56421 | 16937 ft | 391 kts | 41° |
| 2026-05-09 04:44 | 32.45528 | -97.54195 | 16665 ft | 388 kts | 41° |
| 2026-05-09 04:44 | 32.47460 | -97.51994 | 16412 ft | 381 kts | 41° |
| 2026-05-09 04:45 | 32.49346 | -97.49843 | 16129 ft | 373 kts | 41° |
| 2026-05-09 04:45 | 32.51202 | -97.47723 | 15786 ft | 369 kts | 41° |
| 2026-05-09 04:45 | 32.53047 | -97.45613 | 15398 ft | 366 kts | 41° |
| 2026-05-09 04:45 | 32.54873 | -97.43528 | 15151 ft | 365 kts | 41° |
| 2026-05-09 04:46 | 32.56699 | -97.41446 | 14925 ft | 364 kts | 41° |
| 2026-05-09 04:46 | 32.58512 | -97.39375 | 14699 ft | 358 kts | 41° |
| 2026-05-09 04:46 | 32.60285 | -97.37339 | 14408 ft | 353 kts | 41° |
| 2026-05-09 04:46 | 32.62007 | -97.35355 | 14272 ft | 335 kts | 41° |
| 2026-05-09 04:47 | 32.63646 | -97.33467 | 13970 ft | 323 kts | 41° |
| 2026-05-09 04:47 | 32.65248 | -97.31629 | 13472 ft | 318 kts | 41° |
| 2026-05-09 04:47 | 32.66827 | -97.29824 | 13044 ft | 314 kts | 41° |
| 2026-05-09 04:47 | 32.68400 | -97.28027 | 12891 ft | 314 kts | 41° |
| 2026-05-09 04:48 | 32.69971 | -97.26230 | 12741 ft | 313 kts | 41° |
| 2026-05-09 04:48 | 32.71535 | -97.24436 | 12605 ft | 313 kts | 41° |
| 2026-05-09 04:48 | 32.73093 | -97.22642 | 12469 ft | 311 kts | 41° |
| 2026-05-09 04:48 | 32.74642 | -97.20854 | 12334 ft | 308 kts | 41° |
| 2026-05-09 04:49 | 32.76159 | -97.19102 | 12197 ft | 300 kts | 41° |
| 2026-05-09 04:49 | 32.77779 | -97.17638 | 12063 ft | 287 kts | 24° |
| 2026-05-09 04:49 | 32.79598 | -97.16862 | 12012 ft | 269 kts | 5° |
| 2026-05-09 04:49 | 32.81404 | -97.16719 | 11991 ft | 256 kts | 355° |
| 2026-05-09 04:50 | 32.83178 | -97.16709 | 11991 ft | 254 kts | 355° |
| 2026-05-09 04:50 | 32.84948 | -97.16687 | 11913 ft | 257 kts | 356° |
| 2026-05-09 04:50 | 32.86792 | -97.16669 | 11239 ft | 273 kts | 356° |
| 2026-05-09 04:50 | 32.88746 | -97.16651 | 10658 ft | 285 kts | 357° |
| 2026-05-09 04:51 | 32.90738 | -97.16626 | 10320 ft | 286 kts | 357° |
| 2026-05-09 04:51 | 32.92725 | -97.16600 | 10042 ft | 284 kts | 357° |
| 2026-05-09 04:51 | 32.94695 | -97.16575 | 9773 ft | 283 kts | 357° |
| 2026-05-09 04:51 | 32.96655 | -97.16548 | 9488 ft | 280 kts | 357° |
| 2026-05-09 04:52 | 32.98597 | -97.16516 | 9232 ft | 278 kts | 357° |
| 2026-05-09 04:52 | 33.00505 | -97.16487 | 9069 ft | 268 kts | 357° |
| 2026-05-09 04:52 | 33.02313 | -97.16462 | 8925 ft | 252 kts | 357° |
| 2026-05-09 04:52 | 33.04011 | -97.16442 | 8793 ft | 236 kts | 357° |
| 2026-05-09 04:53 | 33.05603 | -97.16425 | 8684 ft | 220 kts | 356° |
| 2026-05-09 04:53 | 33.07081 | -97.16234 | 8368 ft | 215 kts | 18° |
| 2026-05-09 04:53 | 33.08257 | -97.15159 | 7961 ft | 217 kts | 55° |
| 2026-05-09 04:53 | 33.08719 | -97.13476 | 7542 ft | 215 kts | 86° |
| 2026-05-09 04:54 | 33.08735 | -97.11698 | 7087 ft | 215 kts | 93° |
| 2026-05-09 04:54 | 33.08675 | -97.09927 | 6662 ft | 212 kts | 98° |
| 2026-05-09 04:54 | 33.08279 | -97.08261 | 6242 ft | 208 kts | 118° |
| 2026-05-09 04:54 | 33.07458 | -97.06877 | 5810 ft | 202 kts | 138° |
| 2026-05-09 04:55 | 33.06336 | -97.05914 | 5369 ft | 197 kts | 156° |
| 2026-05-09 04:55 | 33.05050 | -97.05441 | 4951 ft | 191 kts | 174° |
| 2026-05-09 04:55 | 33.03734 | -97.05398 | 4359 ft | 190 kts | 181° |
| 2026-05-09 04:55 | 33.02428 | -97.05407 | 3887 ft | 185 kts | 181° |
| 2026-05-09 04:56 | 33.01158 | -97.05415 | 3394 ft | 180 kts | 180° |
| 2026-05-09 04:56 | 32.99918 | -97.05422 | 2899 ft | 176 kts | 179° |
| 2026-05-09 04:56 | 32.98721 | -97.05428 | 2443 ft | 167 kts | 179° |
| 2026-05-09 04:56 | 32.97577 | -97.05434 | 2328 ft | 164 kts | 180° |
| 2026-05-09 04:57 | 32.96423 | -97.05438 | 1949 ft | 176 kts | 180° |
| 2026-05-09 04:57 | 32.95109 | -97.05439 | 2539 ft | 192 kts | 180° |
| 2026-05-09 04:57 | 32.93787 | -97.05477 | 3304 ft | 192 kts | 185° |
| 2026-05-09 04:57 | 32.92460 | -97.06062 | 3109 ft | 215 kts | 216° |
| 2026-05-09 04:58 | 32.91527 | -97.07372 | 2986 ft | 206 kts | 247° |
| 2026-05-09 04:58 | 32.91427 | -97.09042 | 2994 ft | 207 kts | 284° |
| 2026-05-09 04:58 | 32.92192 | -97.10465 | 2998 ft | 208 kts | 321° |
| 2026-05-09 04:58 | 32.93416 | -97.11391 | 3005 ft | 209 kts | 332° |
| 2026-05-09 04:59 | 32.94795 | -97.11865 | 3000 ft | 208 kts | 357° |
| 2026-05-09 04:59 | 32.96223 | -97.11890 | 3009 ft | 198 kts | 2° |
| 2026-05-09 04:59 | 32.97573 | -97.11851 | 2994 ft | 192 kts | 2° |
| 2026-05-09 04:59 | 32.98883 | -97.11807 | 2948 ft | 186 kts | 2° |
| 2026-05-09 05:00 | 33.00185 | -97.11764 | 2984 ft | 188 kts | 2° |
| 2026-05-09 05:00 | 33.01495 | -97.11719 | 2991 ft | 188 kts | 2° |
| 2026-05-09 05:00 | 33.02783 | -97.11674 | 2990 ft | 182 kts | 2° |
| 2026-05-09 05:00 | 33.04038 | -97.11629 | 2994 ft | 179 kts | 2° |
| 2026-05-09 05:01 | 33.05276 | -97.11513 | 3024 ft | 178 kts | 17° |
| 2026-05-09 05:01 | 33.06315 | -97.10779 | 3036 ft | 174 kts | 51° |
| 2026-05-09 05:01 | 33.06840 | -97.09515 | 3039 ft | 170 kts | 82° |
| 2026-05-09 05:01 | 33.06853 | -97.08125 | 3038 ft | 168 kts | 104° |
| 2026-05-09 05:02 | 33.06408 | -97.06861 | 2992 ft | 165 kts | 127° |
| 2026-05-09 05:02 | 33.05595 | -97.05920 | 2992 ft | 163 kts | 149° |
| 2026-05-09 05:02 | 33.04541 | -97.05438 | 2919 ft | 163 kts | 172° |
| 2026-05-09 05:02 | 33.03416 | -97.05402 | 2750 ft | 159 kts | 180° |
| 2026-05-09 05:03 | 33.02341 | -97.05409 | 2563 ft | 150 kts | 180° |
| 2026-05-09 05:03 | 33.01313 | -97.05414 | 2370 ft | 146 kts | 179° |
| 2026-05-09 05:03 | 33.00320 | -97.05420 | 2212 ft | 139 kts | 180° |
| 2026-05-09 05:03 | 32.99362 | -97.05425 | 1975 ft | 136 kts | 180° |
| 2026-05-09 05:04 | 32.98426 | -97.05432 | 1817 ft | 134 kts | 180° |
| 2026-05-09 05:04 | 32.97492 | -97.05435 | 1649 ft | 134 kts | 180° |
| 2026-05-09 05:04 | 32.96561 | -97.05441 | 1465 ft | 134 kts | 180° |
| 2026-05-09 05:04 | 32.95626 | -97.05447 | 1329 ft | 136 kts | 181° |
| 2026-05-09 05:05 | 32.94674 | -97.05451 | 1231 ft | 138 kts | 180° |
| 2026-05-09 05:05 | 32.93707 | -97.05455 | 1081 ft | 139 kts | 180° |
| 2026-05-09 05:05 | 32.92745 | -97.05461 | 918 ft | 138 kts | 180° |
| 2026-05-09 05:05 | 32.91780 | -97.05465 | 736 ft | 137 kts | 180° |
| 2026-05-09 05:06 | 32.90867 | -97.05469 | 612 ft | 117 kts | 181° |
| 2026-05-09 05:06 | 32.90224 | -97.05472 | 609 ft | 68 kts | 179° |
| 2026-05-09 05:06 | 32.89896 | -97.05473 | 610 ft | 37 kts | 180° |
| 2026-05-09 05:06 | 32.89651 | -97.05443 | 612 ft | 34 kts | 156° |
| 2026-05-09 05:07 | 32.89445 | -97.05307 | 601 ft | 35 kts | 153° |
| 2026-05-09 05:07 | 32.89209 | -97.05282 | 597 ft | 35 kts | 182° |
| 2026-05-09 05:07 | 32.88957 | -97.05286 | 590 ft | 38 kts | 179° |
| 2026-05-09 05:07 | 32.88706 | -97.05289 | 591 ft | 31 kts | 180° |
| 2026-05-09 05:08 | 32.88618 | -97.05216 | 587 ft | 19 kts | 95° |
| 2026-05-09 05:08 | 32.88611 | -97.05037 | 589 ft | 24 kts | 92° |
| 2026-05-09 05:08 | 32.88607 | -97.04821 | 588 ft | 28 kts | 88° |
| 2026-05-09 05:08 | 32.88606 | -97.04602 | 589 ft | 22 kts | 98° |
| 2026-05-09 05:09 | 32.88615 | -97.04497 | 591 ft | 4 kts | 308° |
| 2026-05-09 05:09 | 32.88609 | -97.04554 | 591 ft | 11 kts | 268° |
| 2026-05-09 05:09 | 32.88661 | -97.04622 | 590 ft | 12 kts | 13° |
| 2026-05-09 05:09 | 32.88743 | -97.04606 | 591 ft | 15 kts | 350° |
| 2026-05-09 05:10 | 32.88875 | -97.04679 | 592 ft | 28 kts | 329° |
| 2026-05-09 05:10 | 32.89095 | -97.04762 | 592 ft | 37 kts | 356° |
| 2026-05-09 05:10 | 32.89348 | -97.04756 | 594 ft | 33 kts | 15° |
| 2026-05-09 05:10 | 32.89429 | -97.04529 | 594 ft | 27 kts | 92° |
| 2026-05-09 05:11 | 32.89408 | -97.04383 | 592 ft | 9 kts | 153° |
| 2026-05-09 05:11 | 32.89391 | -97.04419 | 592 ft | 9 kts | 256° |
| 2026-05-09 05:11 | 32.89378 | -97.04462 | 593 ft | 0 kts | 278° |
| 2026-05-09 05:11 | 32.89378 | -97.04463 | 593 ft | 0 kts | 272° |